sensor_id;sensor_type;location;lat;lon;timestamp;pressure;altitude;pressure_sealevel;temperature;humidity
15487;BME280;7845;53.698;10.078;2023-01-30T00:00:25;100418.44;;;5.55;100.00
15487;BME280;7845;53.698;10.078;2023-01-30T00:02:51;100421.03;;;5.58;100.00
15487;BME280;7845;53.698;10.078;2023-01-30T00:05:16;100417.63;;;5.63;100.00
15487;BME280;7845;53.698;10.078;2023-01-30T00:07:42;100409.84;;;5.59;100.00
15487;BME280;7845;53.698;10.078;2023-01-30T00:10:08;100413.31;;;5.62;100.00
15487;BME280;7845;53.698;10.078;2023-01-30T00:12:34;100418.47;;;5.62;100.00
15487;BME280;7845;53.698;10.078;2023-01-30T00:15:00;100431.41;;;5.57;100.00
15487;BME280;7845;53.698;10.078;2023-01-30T00:17:25;100409.91;;;5.64;100.00
15487;BME280;7845;53.698;10.078;2023-01-30T00:19:52;100422.81;;;5.63;100.00
15487;BME280;7845;53.698;10.078;2023-01-30T00:22:17;100389.97;;;5.58;100.00
15487;BME280;7845;53.698;10.078;2023-01-30T00:24:42;100385.72;;;5.61;100.00
15487;BME280;7845;53.698;10.078;2023-01-30T00:27:07;100377.06;;;5.57;100.00
15487;BME280;7845;53.698;10.078;2023-01-30T00:29:34;100360.66;;;5.55;100.00
15487;BME280;7845;53.698;10.078;2023-01-30T00:31:59;100351.16;;;5.62;100.00
15487;BME280;7845;53.698;10.078;2023-01-30T00:34:24;100343.44;;;5.66;100.00
15487;BME280;7845;53.698;10.078;2023-01-30T00:36:52;100332.22;;;5.66;100.00
15487;BME280;7845;53.698;10.078;2023-01-30T00:39:19;100328.72;;;5.59;100.00
15487;BME280;7845;53.698;10.078;2023-01-30T00:41:44;100321.00;;;5.64;100.00
15487;BME280;7845;53.698;10.078;2023-01-30T00:44:29;100299.44;;;5.68;100.00
15487;BME280;7845;53.698;10.078;2023-01-30T00:47:13;100296.88;;;5.75;100.00
15487;BME280;7845;53.698;10.078;2023-01-30T00:49:38;100294.28;;;5.74;100.00
15487;BME280;7845;53.698;10.078;2023-01-30T00:52:04;100294.28;;;5.80;100.00
15487;BME280;7845;53.698;10.078;2023-01-30T00:54:30;100283.94;;;5.78;100.00
15487;BME280;7845;53.698;10.078;2023-01-30T00:56:55;100265.84;;;5.81;100.00
15487;BME280;7845;53.698;10.078;2023-01-30T00:59:21;100276.22;;;5.86;100.00
15487;BME280;7845;53.698;10.078;2023-01-30T01:01:46;100271.03;;;5.86;100.00
15487;BME280;7845;53.698;10.078;2023-01-30T01:04:12;100251.22;;;5.88;100.00
15487;BME280;7845;53.698;10.078;2023-01-30T01:06:39;100243.41;;;5.82;100.00
15487;BME280;7845;53.698;10.078;2023-01-30T01:09:05;100241.72;;;5.91;100.00
15487;BME280;7845;53.698;10.078;2023-01-30T01:11:31;100246.91;;;5.93;100.00
15487;BME280;7845;53.698;10.078;2023-01-30T01:13:59;100227.88;;;5.82;100.00
15487;BME280;7845;53.698;10.078;2023-01-30T01:16:25;100232.22;;;5.90;100.00
15487;BME280;7845;53.698;10.078;2023-01-30T01:18:51;100221.88;;;5.95;100.00
15487;BME280;7845;53.698;10.078;2023-01-30T01:21:17;100210.63;;;5.94;100.00
15487;BME280;7845;53.698;10.078;2023-01-30T01:23:43;100213.25;;;6.02;100.00
15487;BME280;7845;53.698;10.078;2023-01-30T01:26:10;100204.63;;;5.98;100.00
15487;BME280;7845;53.698;10.078;2023-01-30T01:28:37;100202.88;;;5.97;100.00
15487;BME280;7845;53.698;10.078;2023-01-30T01:31:10;100174.38;;;5.97;100.00
15487;BME280;7845;53.698;10.078;2023-01-30T01:33:36;100172.66;;;5.90;100.00
15487;BME280;7845;53.698;10.078;2023-01-30T01:36:01;100174.38;;;5.97;100.00
15487;BME280;7845;53.698;10.078;2023-01-30T01:38:26;100165.75;;;6.01;100.00
15487;BME280;7845;53.698;10.078;2023-01-30T01:40:52;100170.09;;;6.05;100.00
15487;BME280;7845;53.698;10.078;2023-01-30T01:43:38;100164.03;;;6.02;100.00
15487;BME280;7845;53.698;10.078;2023-01-30T01:46:24;100160.59;;;6.03;100.00
15487;BME280;7845;53.698;10.078;2023-01-30T01:48:56;100151.94;;;6.13;100.00
15487;BME280;7845;53.698;10.078;2023-01-30T01:51:31;100143.31;;;6.22;100.00
15487;BME280;7845;53.698;10.078;2023-01-30T01:54:06;100131.22;;;6.27;100.00
15487;BME280;7845;53.698;10.078;2023-01-30T01:56:39;100131.22;;;6.28;100.00
15487;BME280;7845;53.698;10.078;2023-01-30T01:59:12;100137.25;;;6.32;100.00
15487;BME280;7845;53.698;10.078;2023-01-30T02:01:42;100131.22;;;6.31;100.00
15487;BME280;7845;53.698;10.078;2023-01-30T02:04:09;100135.53;;;6.31;100.00
15487;BME280;7845;53.698;10.078;2023-01-30T02:06:36;100120.88;;;6.33;100.00
15487;BME280;7845;53.698;10.078;2023-01-30T02:09:08;100115.66;;;6.37;100.00
15487;BME280;7845;53.698;10.078;2023-01-30T02:11:46;100118.25;;;6.34;100.00
15487;BME280;7845;53.698;10.078;2023-01-30T02:14:14;100113.91;;;6.36;100.00
15487;BME280;7845;53.698;10.078;2023-01-30T02:16:41;100113.06;;;6.43;100.00
15487;BME280;7845;53.698;10.078;2023-01-30T02:19:24;100104.44;;;6.38;100.00
15487;BME280;7845;53.698;10.078;2023-01-30T02:24:39;100086.28;;;6.41;100.00
15487;BME280;7845;53.698;10.078;2023-01-30T02:27:35;100089.75;;;6.45;100.00
15487;BME280;7845;53.698;10.078;2023-01-30T02:36:19;100050.00;;;6.37;100.00
15487;BME280;7845;53.698;10.078;2023-01-30T02:39:18;100043.94;;;6.41;100.00
15487;BME280;7845;53.698;10.078;2023-01-30T02:41:59;100040.47;;;6.51;100.00
15487;BME280;7845;53.698;10.078;2023-01-30T02:44:47;100035.28;;;6.52;100.00
15487;BME280;7845;53.698;10.078;2023-01-30T02:47:41;100024.88;;;6.55;100.00
15487;BME280;7845;53.698;10.078;2023-01-30T02:50:13;100024.03;;;6.56;100.00
15487;BME280;7845;53.698;10.078;2023-01-30T02:52:40;100025.75;;;6.59;100.00
15487;BME280;7845;53.698;10.078;2023-01-30T02:55:20;100011.91;;;6.58;100.00
15487;BME280;7845;53.698;10.078;2023-01-30T02:57:46;100000.69;;;6.58;100.00
15487;BME280;7845;53.698;10.078;2023-01-30T03:00:12;100017.97;;;6.62;100.00
15487;BME280;7845;53.698;10.078;2023-01-30T03:11:07;99971.22;;;6.69;100.00
15487;BME280;7845;53.698;10.078;2023-01-30T03:13:57;99979.03;;;6.66;100.00
15487;BME280;7845;53.698;10.078;2023-01-30T03:16:29;99971.22;;;6.69;100.00
15487;BME280;7845;53.698;10.078;2023-01-30T03:19:00;99956.59;;;6.62;100.00
15487;BME280;7845;53.698;10.078;2023-01-30T03:21:26;99951.38;;;6.64;100.00
15487;BME280;7845;53.698;10.078;2023-01-30T03:23:51;99955.69;;;6.68;100.00
15487;BME280;7845;53.698;10.078;2023-01-30T03:26:19;99962.63;;;6.67;100.00
15487;BME280;7845;53.698;10.078;2023-01-30T03:28:49;99953.06;;;6.74;100.00
15487;BME280;7845;53.698;10.078;2023-01-30T03:31:14;99953.94;;;6.70;100.00
15487;BME280;7845;53.698;10.078;2023-01-30T03:33:40;99947.88;;;6.73;100.00
15487;BME280;7845;53.698;10.078;2023-01-30T03:36:05;99939.25;;;6.74;100.00
15487;BME280;7845;53.698;10.078;2023-01-30T03:38:30;99943.53;;;6.79;100.00
15487;BME280;7845;53.698;10.078;2023-01-30T03:40:56;99933.13;;;6.82;100.00
15487;BME280;7845;53.698;10.078;2023-01-30T03:43:21;99936.56;;;6.84;100.00
15487;BME280;7845;53.698;10.078;2023-01-30T03:45:48;99911.53;;;6.82;100.00
15487;BME280;7845;53.698;10.078;2023-01-30T03:48:13;99917.56;;;6.82;100.00
15487;BME280;7845;53.698;10.078;2023-01-30T03:50:38;99914.97;;;6.87;100.00
15487;BME280;7845;53.698;10.078;2023-01-30T03:53:04;99918.38;;;6.90;100.00
15487;BME280;7845;53.698;10.078;2023-01-30T03:55:30;99930.50;;;6.90;100.00
15487;BME280;7845;53.698;10.078;2023-01-30T03:57:56;99960.75;;;6.92;100.00
15487;BME280;7845;53.698;10.078;2023-01-30T04:00:22;99968.53;;;6.88;100.00
15487;BME280;7845;53.698;10.078;2023-01-30T04:02:47;99966.13;;;6.56;100.00
15487;BME280;7845;53.698;10.078;2023-01-30T04:05:12;99959.31;;;6.35;100.00
15487;BME280;7845;53.698;10.078;2023-01-30T04:07:38;99972.25;;;6.37;100.00
15487;BME280;7845;53.698;10.078;2023-01-30T04:10:04;99967.06;;;6.40;100.00
15487;BME280;7845;53.698;10.078;2023-01-30T04:12:30;99949.81;;;6.33;100.00
15487;BME280;7845;53.698;10.078;2023-01-30T04:14:55;99953.25;;;6.38;100.00
15487;BME280;7845;53.698;10.078;2023-01-30T04:17:20;99961.00;;;6.39;100.00
15487;BME280;7845;53.698;10.078;2023-01-30T04:19:46;99958.44;;;6.38;100.00
15487;BME280;7845;53.698;10.078;2023-01-30T04:22:11;99958.44;;;6.35;100.00
15487;BME280;7845;53.698;10.078;2023-01-30T04:24:36;99952.38;;;6.39;100.00
15487;BME280;7845;53.698;10.078;2023-01-30T04:27:03;99955.81;;;6.41;100.00
15487;BME280;7845;53.698;10.078;2023-01-30T04:29:29;99957.59;;;6.36;100.00
15487;BME280;7845;53.698;10.078;2023-01-30T04:31:54;99942.06;;;6.30;100.00
15487;BME280;7845;53.698;10.078;2023-01-30T04:34:20;99942.03;;;6.34;100.00
15487;BME280;7845;53.698;10.078;2023-01-30T04:36:45;99934.25;;;6.34;100.00
15487;BME280;7845;53.698;10.078;2023-01-30T04:39:11;99928.19;;;6.34;100.00
15487;BME280;7845;53.698;10.078;2023-01-30T04:41:36;99939.44;;;6.34;100.00
15487;BME280;7845;53.698;10.078;2023-01-30T04:44:02;99947.19;;;6.37;100.00
15487;BME280;7845;53.698;10.078;2023-01-30T04:46:27;99944.63;;;6.34;100.00
15487;BME280;7845;53.698;10.078;2023-01-30T04:48:52;99940.28;;;6.41;100.00
15487;BME280;7845;53.698;10.078;2023-01-30T04:51:18;99932.50;;;6.38;100.00
15487;BME280;7845;53.698;10.078;2023-01-30T04:53:43;99923.00;;;6.40;100.00
15487;BME280;7845;53.698;10.078;2023-01-30T04:56:08;99932.50;;;6.41;100.00
15487;BME280;7845;53.698;10.078;2023-01-30T04:58:35;99948.91;;;6.37;100.00
15487;BME280;7845;53.698;10.078;2023-01-30T05:01:17;99941.16;;;6.38;100.00
15487;BME280;7845;53.698;10.078;2023-01-30T05:03:48;99934.28;;;6.33;100.00
15487;BME280;7845;53.698;10.078;2023-01-30T05:06:13;99942.00;;;6.37;100.00
15487;BME280;7845;53.698;10.078;2023-01-30T05:08:39;99935.97;;;6.38;100.00
15487;BME280;7845;53.698;10.078;2023-01-30T05:11:04;99939.44;;;6.39;100.00
15487;BME280;7845;53.698;10.078;2023-01-30T05:13:29;99938.53;;;6.43;100.00
15487;BME280;7845;53.698;10.078;2023-01-30T05:15:55;99952.34;;;6.46;100.00
15487;BME280;7845;53.698;10.078;2023-01-30T05:18:20;99952.34;;;6.48;100.00
15487;BME280;7845;53.698;10.078;2023-01-30T05:20:45;99946.28;;;6.50;100.00
15487;BME280;7845;53.698;10.078;2023-01-30T05:23:10;99943.66;;;6.52;100.00
15487;BME280;7845;53.698;10.078;2023-01-30T05:25:36;99952.31;;;6.54;100.00
15487;BME280;7845;53.698;10.078;2023-01-30T05:28:01;99952.31;;;6.55;100.00
15487;BME280;7845;53.698;10.078;2023-01-30T05:30:26;99949.69;;;6.58;100.00
15487;BME280;7845;53.698;10.078;2023-01-30T05:32:51;99935.88;;;6.55;100.00
15487;BME280;7845;53.698;10.078;2023-01-30T05:35:17;99934.97;;;6.60;100.00
15487;BME280;7845;53.698;10.078;2023-01-30T05:37:43;99949.63;;;6.66;100.00
15487;BME280;7845;53.698;10.078;2023-01-30T05:40:09;99945.34;;;6.65;100.00
15487;BME280;7845;53.698;10.078;2023-01-30T05:42:38;99943.59;;;6.67;100.00
15487;BME280;7845;53.698;10.078;2023-01-30T05:45:07;99943.59;;;6.67;100.00
15487;BME280;7845;53.698;10.078;2023-01-30T05:47:32;99931.47;;;6.71;100.00
15487;BME280;7845;53.698;10.078;2023-01-30T05:49:58;99947.88;;;6.73;100.00
15487;BME280;7845;53.698;10.078;2023-01-30T05:52:24;99946.19;;;6.67;100.00
15487;BME280;7845;53.698;10.078;2023-01-30T05:54:50;99953.13;;;6.63;100.00
15487;BME280;7845;53.698;10.078;2023-01-30T05:57:15;99942.81;;;6.56;100.00
15487;BME280;7845;53.698;10.078;2023-01-30T05:59:41;99943.69;;;6.53;100.00
15487;BME280;7845;53.698;10.078;2023-01-30T06:02:08;99939.41;;;6.48;100.00
15487;BME280;7845;53.698;10.078;2023-01-30T06:04:33;99939.34;;;6.55;100.00
15487;BME280;7845;53.698;10.078;2023-01-30T06:06:59;99942.81;;;6.53;100.00
15487;BME280;7845;53.698;10.078;2023-01-30T06:09:25;99948.00;;;6.53;100.00
15487;BME280;7845;53.698;10.078;2023-01-30T06:11:50;99957.50;;;6.57;100.00
15487;BME280;7845;53.698;10.078;2023-01-30T06:14:16;99961.81;;;6.56;100.00
15487;BME280;7845;53.698;10.078;2023-01-30T06:16:43;99956.63;;;6.56;100.00
15487;BME280;7845;53.698;10.078;2023-01-30T06:19:08;99961.81;;;6.56;100.00
15487;BME280;7845;53.698;10.078;2023-01-30T06:21:33;99967.88;;;6.54;100.00
15487;BME280;7845;53.698;10.078;2023-01-30T06:23:59;99973.09;;;6.43;100.00
15487;BME280;7845;53.698;10.078;2023-01-30T06:26:24;99962.75;;;6.37;100.00
15487;BME280;7845;53.698;10.078;2023-01-30T06:28:50;99975.72;;;6.34;100.00
15487;BME280;7845;53.698;10.078;2023-01-30T06:31:15;99976.63;;;6.23;100.00
15487;BME280;7845;53.698;10.078;2023-01-30T06:33:42;99980.09;;;6.20;100.00
15487;BME280;7845;53.698;10.078;2023-01-30T06:36:08;99987.00;;;6.24;100.00
15487;BME280;7845;53.698;10.078;2023-01-30T06:38:34;99990.47;;;6.12;100.00
15487;BME280;7845;53.698;10.078;2023-01-30T06:41:00;99991.31;;;6.21;100.00
15487;BME280;7845;53.698;10.078;2023-01-30T06:43:25;99990.44;;;6.23;100.00
15487;BME280;7845;53.698;10.078;2023-01-30T06:45:50;99994.78;;;6.18;100.00
15487;BME280;7845;53.698;10.078;2023-01-30T06:48:16;99993.03;;;6.19;100.00
15487;BME280;7845;53.698;10.078;2023-01-30T06:50:41;99987.03;;;6.18;100.00
15487;BME280;7845;53.698;10.078;2023-01-30T06:53:07;99989.59;;;6.24;100.00
15487;BME280;7845;53.698;10.078;2023-01-30T06:55:33;99993.00;;;6.28;100.00
15487;BME280;7845;53.698;10.078;2023-01-30T06:58:08;100005.97;;;6.31;100.00
15487;BME280;7845;53.698;10.078;2023-01-30T07:00:35;99986.94;;;6.30;100.00
15487;BME280;7845;53.698;10.078;2023-01-30T07:03:11;100012.88;;;6.30;100.00
15487;BME280;7845;53.698;10.078;2023-01-30T07:05:38;100015.47;;;6.29;100.00
15487;BME280;7845;53.698;10.078;2023-01-30T07:08:04;100014.63;;;6.21;100.00
15487;BME280;7845;53.698;10.078;2023-01-30T07:10:31;100016.34;;;6.23;100.00
15487;BME280;7845;53.698;10.078;2023-01-30T07:12:57;100016.34;;;6.16;100.00
15487;BME280;7845;53.698;10.078;2023-01-30T07:15:23;100020.69;;;6.10;100.00
15487;BME280;7845;53.698;10.078;2023-01-30T07:17:48;100021.53;;;6.16;100.00
15487;BME280;7845;53.698;10.078;2023-01-30T07:20:14;100016.38;;;6.20;100.00
15487;BME280;7845;53.698;10.078;2023-01-30T07:22:41;100012.03;;;6.19;100.00
15487;BME280;7845;53.698;10.078;2023-01-30T07:25:07;100011.16;;;6.26;100.00
15487;BME280;7845;53.698;10.078;2023-01-30T07:27:33;100018.09;;;6.27;100.00
15487;BME280;7845;53.698;10.078;2023-01-30T07:29:59;100023.22;;;6.36;100.00
15487;BME280;7845;53.698;10.078;2023-01-30T07:32:24;100022.38;;;6.36;100.00
15487;BME280;7845;53.698;10.078;2023-01-30T07:34:49;100031.88;;;6.32;100.00
15487;BME280;7845;53.698;10.078;2023-01-30T07:37:15;100032.72;;;6.37;100.00
15487;BME280;7845;53.698;10.078;2023-01-30T07:39:40;100042.25;;;6.32;100.00
15487;BME280;7845;53.698;10.078;2023-01-30T07:42:06;100037.91;;;6.42;100.00
15487;BME280;7845;53.698;10.078;2023-01-30T07:44:31;100043.94;;;6.42;100.00
15487;BME280;7845;53.698;10.078;2023-01-30T07:46:59;100054.31;;;6.44;100.00
15487;BME280;7845;53.698;10.078;2023-01-30T07:49:24;100047.41;;;6.47;100.00
15487;BME280;7845;53.698;10.078;2023-01-30T07:51:51;100037.03;;;6.47;100.00
15487;BME280;7845;53.698;10.078;2023-01-30T07:54:16;100024.91;;;6.51;100.00
15487;BME280;7845;53.698;10.078;2023-01-30T07:56:42;100037.00;;;6.49;100.00
15487;BME280;7845;53.698;10.078;2023-01-30T07:59:09;100029.22;;;6.49;100.00
15487;BME280;7845;53.698;10.078;2023-01-30T08:01:34;100018.00;;;6.48;100.00
15487;BME280;7845;53.698;10.078;2023-01-30T08:04:00;100044.78;;;6.46;100.00
15487;BME280;7845;53.698;10.078;2023-01-30T08:06:25;100048.28;;;6.45;100.00
15487;BME280;7845;53.698;10.078;2023-01-30T08:08:50;100035.28;;;6.54;100.00
15487;BME280;7845;53.698;10.078;2023-01-30T08:11:16;100039.59;;;6.46;100.00
15487;BME280;7845;53.698;10.078;2023-01-30T08:13:42;100049.13;;;6.38;100.00
15487;BME280;7845;53.698;10.078;2023-01-30T08:16:07;100048.31;;;6.30;100.00
15487;BME280;7845;53.698;10.078;2023-01-30T08:18:33;100040.56;;;6.13;100.00
15487;BME280;7845;53.698;10.078;2023-01-30T08:21:00;100037.97;;;6.13;100.00
15487;BME280;7845;53.698;10.078;2023-01-30T08:23:25;100061.28;;;6.15;100.00
15487;BME280;7845;53.698;10.078;2023-01-30T08:25:55;100045.72;;;6.13;100.00
15487;BME280;7845;53.698;10.078;2023-01-30T08:28:21;100057.81;;;6.20;100.00
15487;BME280;7845;53.698;10.078;2023-01-30T08:30:46;100048.31;;;6.33;100.00
15487;BME280;7845;53.698;10.078;2023-01-30T08:33:14;100046.56;;;6.30;100.00
15487;BME280;7845;53.698;10.078;2023-01-30T08:35:40;100044.81;;;6.44;100.00
15487;BME280;7845;53.698;10.078;2023-01-30T08:38:06;100042.19;;;6.50;100.00
15487;BME280;7845;53.698;10.078;2023-01-30T08:40:33;100048.22;;;6.55;100.00
15487;BME280;7845;53.698;10.078;2023-01-30T08:42:59;100049.06;;;6.54;100.00
15487;BME280;7845;53.698;10.078;2023-01-30T08:45:24;100042.16;;;6.58;100.00
15487;BME280;7845;53.698;10.078;2023-01-30T08:47:50;100043.88;;;6.57;100.00
15487;BME280;7845;53.698;10.078;2023-01-30T08:50:15;100053.41;;;6.55;100.00
15487;BME280;7845;53.698;10.078;2023-01-30T08:52:41;100050.84;;;6.54;100.00
15487;BME280;7845;53.698;10.078;2023-01-30T08:55:06;100047.34;;;6.55;100.00
15487;BME280;7845;53.698;10.078;2023-01-30T08:57:32;100039.53;;;6.70;100.00
15487;BME280;7845;53.698;10.078;2023-01-30T08:59:57;100050.66;;;6.92;100.00
15487;BME280;7845;53.698;10.078;2023-01-30T09:02:23;100050.63;;;7.04;100.00
15487;BME280;7845;53.698;10.078;2023-01-30T09:04:48;100050.66;;;6.93;100.00
15487;BME280;7845;53.698;10.078;2023-01-30T09:07:14;100058.41;;;7.04;100.00
15487;BME280;7845;53.698;10.078;2023-01-30T09:09:39;100061.84;;;7.06;100.00
15487;BME280;7845;53.698;10.078;2023-01-30T09:12:04;100066.16;;;7.05;100.00
15487;BME280;7845;53.698;10.078;2023-01-30T09:14:30;100062.72;;;7.03;100.00
15487;BME280;7845;53.698;10.078;2023-01-30T09:16:55;100070.47;;;7.08;100.00
15487;BME280;7845;53.698;10.078;2023-01-30T09:19:22;100060.97;;;7.02;100.00
15487;BME280;7845;53.698;10.078;2023-01-30T09:21:48;100067.00;;;7.13;100.00
15487;BME280;7845;53.698;10.078;2023-01-30T09:24:14;100067.84;;;7.18;100.00
15487;BME280;7845;53.698;10.078;2023-01-30T09:26:39;100063.44;;;7.27;100.00
15487;BME280;7845;53.698;10.078;2023-01-30T09:29:09;100056.50;;;7.33;100.00
15487;BME280;7845;53.698;10.078;2023-01-30T09:31:34;100069.34;;;7.53;100.00
15487;BME280;7845;53.698;10.078;2023-01-30T09:34:00;100065.69;;;7.76;100.00
15487;BME280;7845;53.698;10.078;2023-01-30T09:36:25;100068.38;;;7.70;100.00
15487;BME280;7845;53.698;10.078;2023-01-30T09:38:50;100068.47;;;7.58;100.00
15487;BME280;7845;53.698;10.078;2023-01-30T09:44:14;100065.91;;;7.48;100.00
15487;BME280;7845;53.698;10.078;2023-01-30T09:46:53;100065.00;;;7.55;100.00
15487;BME280;7845;53.698;10.078;2023-01-30T09:52:26;100058.09;;;7.52;100.00
15487;BME280;7845;53.698;10.078;2023-01-30T09:55:00;100070.19;;;7.58;100.00
15487;BME280;7845;53.698;10.078;2023-01-30T09:57:26;100073.72;;;7.49;100.00
15487;BME280;7845;53.698;10.078;2023-01-30T10:00:12;100057.31;;;7.40;100.00
15487;BME280;7845;53.698;10.078;2023-01-30T10:02:49;100061.69;;;7.30;100.00
15487;BME280;7845;53.698;10.078;2023-01-30T10:05:17;100049.59;;;7.31;100.00
15487;BME280;7845;53.698;10.078;2023-01-30T10:07:58;100058.31;;;7.17;100.00
15487;BME280;7845;53.698;10.078;2023-01-30T10:10:40;100046.19;;;7.21;100.00
15487;BME280;7845;53.698;10.078;2023-01-30T10:15:51;100035.59;;;7.50;100.00
15487;BME280;7845;53.698;10.078;2023-01-30T10:26:38;100036.06;;;7.99;100.00
15487;BME280;7845;53.698;10.078;2023-01-30T10:29:14;100039.53;;;7.99;100.00
15487;BME280;7845;53.698;10.078;2023-01-30T10:31:53;100022.22;;;8.00;100.00
15487;BME280;7845;53.698;10.078;2023-01-30T10:34:36;100030.47;;;8.41;100.00
15487;BME280;7845;53.698;10.078;2023-01-30T10:37:23;100019.84;;;8.61;100.00
15487;BME280;7845;53.698;10.078;2023-01-30T10:40:03;100020.91;;;8.45;100.00
15487;BME280;7845;53.698;10.078;2023-01-30T10:45:20;100020.28;;;8.15;100.00
15487;BME280;7845;53.698;10.078;2023-01-30T10:50:17;100014.19;;;8.21;100.00
15487;BME280;7845;53.698;10.078;2023-01-30T10:55:45;100015.53;;;7.71;100.00
15487;BME280;7845;53.698;10.078;2023-01-30T11:01:00;100035.84;;;7.16;100.00
15487;BME280;7845;53.698;10.078;2023-01-30T11:03:37;100072.31;;;6.86;100.00
15487;BME280;7845;53.698;10.078;2023-01-30T11:06:10;100069.88;;;6.36;100.00
15487;BME280;7845;53.698;10.078;2023-01-30T11:08:38;100094.09;;;6.11;100.00
15487;BME280;7845;53.698;10.078;2023-01-30T11:11:41;100077.69;;;6.12;100.00
15487;BME280;7845;53.698;10.078;2023-01-30T11:14:10;100092.38;;;5.93;100.00
15487;BME280;7845;53.698;10.078;2023-01-30T11:16:43;100073.38;;;5.93;100.00
15487;BME280;7845;53.698;10.078;2023-01-30T11:19:10;100075.97;;;5.91;100.00
15487;BME280;7845;53.698;10.078;2023-01-30T11:21:37;100080.28;;;5.98;100.00
15487;BME280;7845;53.698;10.078;2023-01-30T11:24:18;100076.81;;;6.07;100.00
15487;BME280;7845;53.698;10.078;2023-01-30T11:26:44;100070.78;;;6.14;100.00
15487;BME280;7845;53.698;10.078;2023-01-30T11:29:24;100066.47;;;6.18;100.00
15487;BME280;7845;53.698;10.078;2023-01-30T11:31:51;100068.16;;;6.16;100.00
15487;BME280;7845;53.698;10.078;2023-01-30T11:34:19;100071.63;;;6.16;100.00
15487;BME280;7845;53.698;10.078;2023-01-30T11:36:46;100063.00;;;6.14;100.00
15487;BME280;7845;53.698;10.078;2023-01-30T11:41:56;100057.81;;;6.26;100.00
15487;BME280;7845;53.698;10.078;2023-01-30T11:44:27;100065.56;;;6.34;100.00
15487;BME280;7845;53.698;10.078;2023-01-30T11:46:53;100040.50;;;6.39;100.00
15487;BME280;7845;53.698;10.078;2023-01-30T11:49:32;100032.69;;;6.46;100.00
15487;BME280;7845;53.698;10.078;2023-01-30T11:52:03;100030.09;;;6.51;100.00
15487;BME280;7845;53.698;10.078;2023-01-30T11:54:34;100030.91;;;6.60;100.00
15487;BME280;7845;53.698;10.078;2023-01-30T11:57:03;100020.50;;;6.73;100.00
15487;BME280;7845;53.698;10.078;2023-01-30T11:59:32;100016.16;;;6.78;100.00
15487;BME280;7845;53.698;10.078;2023-01-30T12:04:32;100010.97;;;6.78;100.00
15487;BME280;7845;53.698;10.078;2023-01-30T12:07:07;100020.38;;;6.98;100.00
15487;BME280;7845;53.698;10.078;2023-01-30T12:09:38;100018.66;;;6.97;100.00
15487;BME280;7845;53.698;10.078;2023-01-30T12:18:07;100067.16;;;4.97;100.00
15487;BME280;7845;53.698;10.078;2023-01-30T12:23:16;100049.03;;;4.80;100.00
15487;BME280;7845;53.698;10.078;2023-01-30T12:25:57;100038.69;;;4.82;100.00
15487;BME280;7845;53.698;10.078;2023-01-30T12:28:49;100040.44;;;4.90;100.00
15487;BME280;7845;53.698;10.078;2023-01-30T12:31:31;100033.59;;;5.05;100.00
15487;BME280;7845;53.698;10.078;2023-01-30T12:33:56;100026.72;;;5.19;100.00
15487;BME280;7845;53.698;10.078;2023-01-30T12:36:43;100006.88;;;5.27;100.00
15487;BME280;7845;53.698;10.078;2023-01-30T12:39:38;100008.63;;;5.50;100.00
15487;BME280;7845;53.698;10.078;2023-01-30T12:44:59;99992.22;;;5.53;100.00
15487;BME280;7845;53.698;10.078;2023-01-30T12:50:54;100000.88;;;5.66;100.00
15487;BME280;7845;53.698;10.078;2023-01-30T12:53:50;99996.56;;;5.72;100.00
15487;BME280;7845;53.698;10.078;2023-01-30T12:58:57;100011.25;;;5.88;100.00
15487;BME280;7845;53.698;10.078;2023-01-30T13:04:31;99991.34;;;6.04;100.00
15487;BME280;7845;53.698;10.078;2023-01-30T13:16:13;99999.81;;;6.54;100.00
15487;BME280;7845;53.698;10.078;2023-01-30T13:18:50;100001.50;;;6.71;100.00
15487;BME280;7845;53.698;10.078;2023-01-30T13:21:33;100014.38;;;6.87;100.00
15487;BME280;7845;53.698;10.078;2023-01-30T13:24:23;100010.88;;;6.96;100.00
15487;BME280;7845;53.698;10.078;2023-01-30T13:26:57;100024.69;;;6.96;100.00
15487;BME280;7845;53.698;10.078;2023-01-30T13:29:32;100023.03;;;6.85;100.00
15487;BME280;7845;53.698;10.078;2023-01-30T13:32:02;100023.84;;;6.97;100.00
15487;BME280;7845;53.698;10.078;2023-01-30T13:34:39;100051.53;;;6.94;100.00
15487;BME280;7845;53.698;10.078;2023-01-30T13:37:13;100051.53;;;6.92;100.00
15487;BME280;7845;53.698;10.078;2023-01-30T13:40:07;100061.91;;;6.94;100.00
15487;BME280;7845;53.698;10.078;2023-01-30T13:42:42;100052.38;;;6.94;100.00
15487;BME280;7845;53.698;10.078;2023-01-30T13:45:16;100062.81;;;6.87;100.00
15487;BME280;7845;53.698;10.078;2023-01-30T13:48:00;100074.06;;;6.80;100.00
15487;BME280;7845;53.698;10.078;2023-01-30T13:50:54;100094.81;;;6.75;100.00
15487;BME280;7845;53.698;10.078;2023-01-30T13:53:33;100101.72;;;6.76;100.00
15487;BME280;7845;53.698;10.078;2023-01-30T13:56:21;100104.34;;;6.78;100.00
15487;BME280;7845;53.698;10.078;2023-01-30T14:09:39;100124.13;;;7.07;100.00
15487;BME280;7845;53.698;10.078;2023-01-30T14:12:16;100141.41;;;7.07;100.00
15487;BME280;7845;53.698;10.078;2023-01-30T14:14:56;100141.38;;;7.11;100.00
15487;BME280;7845;53.698;10.078;2023-01-30T14:17:23;100151.75;;;7.16;100.00
15487;BME280;7845;53.698;10.078;2023-01-30T14:19:58;100150.84;;;7.23;100.00
15487;BME280;7845;53.698;10.078;2023-01-30T14:22:29;100158.63;;;7.26;100.00
15487;BME280;7845;53.698;10.078;2023-01-30T14:27:54;100174.22;;;7.21;100.00
15487;BME280;7845;53.698;10.078;2023-01-30T14:30:49;100181.97;;;7.29;100.00
15487;BME280;7845;53.698;10.078;2023-01-30T14:38:30;100225.25;;;7.27;100.00
15487;BME280;7845;53.698;10.078;2023-01-30T14:43:34;100255.50;;;7.36;100.00
15487;BME280;7845;53.698;10.078;2023-01-30T14:53:55;100331.63;;;7.44;100.00